Time;durP1;ratioP1;P1;durP2;ratioP2;P2;SDS_P1;SDS_P2;PMS_P1;PMS_P2;Temp;Humidity;BMP_temperature;BMP_pressure;BME280_temperature;BME280_humidity;BME280_pressure;Samples;Min_cycle;Max_cycle;Signal;HPM_P1;HPM_P2
2022/05/13 00:00:58;;;;;;;7.60;4.00;;;;;;;13.46;48.93;100164.36;107907;1270;94752;-74
2022/05/13 00:03:30;;;;;;;7.30;3.70;;;;;;;13.43;48.95;100169.03;107808;1270;137653;-75
2022/05/13 00:06:03;;;;;;;9.70;3.50;;;;;;;13.39;48.96;100169.73;107912;1270;108945;-74
2022/05/13 00:08:35;;;;;;;8.60;4.00;;;;;;;13.38;48.98;100166.15;107938;1268;107816;-75
2022/05/13 00:11:08;;;;;;;9.80;4.10;;;;;;;13.36;49.23;100167.79;106562;1271;137506;-75
2022/05/13 00:13:41;;;;;;;7.70;3.90;;;;;;;13.34;49.14;100171.01;106454;1271;96504;-76
2022/05/13 00:16:14;;;;;;;16.20;4.10;;;;;;;13.32;49.28;100170.23;106365;1269;138197;-75
2022/05/13 00:18:46;;;;;;;8.80;4.00;;;;;;;13.29;49.45;100166.87;106469;1271;109174;-76
2022/05/13 00:21:18;;;;;;;7.40;3.50;;;;;;;13.26;49.41;100165.04;106369;1271;140118;-76
2022/05/13 00:23:50;;;;;;;9.80;3.90;;;;;;;13.22;49.57;100167.69;106420;1271;96478;-75
2022/05/13 00:26:22;;;;;;;6.00;3.60;;;;;;;13.17;49.73;100163.54;106496;1271;96482;-75
2022/05/13 00:28:55;;;;;;;6.50;3.40;;;;;;;13.14;49.77;100165.42;106344;1271;137568;-75
2022/05/13 00:31:29;;;;;;;8.20;4.10;;;;;;;13.10;49.93;100163.31;106449;1271;108395;-75
2022/05/13 00:34:01;;;;;;;11.80;4.10;;;;;;;13.06;49.97;100159.46;107797;1270;138207;-76
2022/05/13 00:36:33;;;;;;;10.20;4.10;;;;;;;13.04;50.07;100163.59;107912;1271;94750;-74
2022/05/13 00:39:05;;;;;;;6.80;3.60;;;;;;;13.00;50.25;100164.11;107265;1269;138078;-76
2022/05/13 00:41:37;;;;;;;10.10;3.70;;;;;;;12.96;50.30;100162.88;106474;1269;112202;-76
2022/05/13 00:44:10;;;;;;;7.20;3.60;;;;;;;12.93;50.29;100161.08;107907;1271;109180;-74
2022/05/13 00:46:42;;;;;;;9.90;3.80;;;;;;;12.91;50.22;100159.23;106785;1270;137726;-75
2022/05/13 00:49:16;;;;;;;6.90;3.50;;;;;;;12.89;50.25;100161.57;106468;1269;96460;-75
2022/05/13 00:51:50;;;;;;;6.80;3.30;;;;;;;12.87;50.27;100162.38;107732;1270;137200;-74
2022/05/13 00:54:22;;;;;;;6.30;3.40;;;;;;;12.86;50.46;100161.58;107881;1269;110228;-74
2022/05/13 00:56:54;;;;;;;6.60;3.50;;;;;;;12.85;50.37;100164.04;107695;1269;108118;-75
2022/05/13 00:59:30;;;;;;;6.30;3.80;;;;;;;12.85;50.41;100168.95;106347;1271;108455;-74
2022/05/13 01:02:02;;;;;;;10.20;3.80;;;;;;;12.83;50.51;100168.66;106392;1271;96579;-76
2022/05/13 01:04:37;;;;;;;8.50;3.80;;;;;;;12.82;50.69;100169.41;107791;1269;138767;-74
2022/05/13 01:07:13;;;;;;;7.70;3.30;;;;;;;12.82;50.51;100168.72;107917;1269;111220;-74
2022/05/13 01:09:51;;;;;;;9.20;3.80;;;;;;;12.80;50.65;100170.58;106396;1270;137502;-74
2022/05/13 01:12:33;;;;;;;4.50;3.20;;;;;;;12.79;50.57;100171.48;106345;1271;109161;-74
2022/05/13 01:15:09;;;;;;;9.40;3.50;;;;;;;12.79;50.83;100170.24;106408;1270;140255;-74
2022/05/13 01:20:35;;;;;;;7.40;3.50;;;;;;;12.77;50.86;100170.33;106611;1271;111012;-73
2022/05/13 01:23:10;;;;;;;6.30;3.60;;;;;;;12.76;50.93;100171.97;107822;1269;139585;-73
2022/05/13 01:25:46;;;;;;;4.60;3.40;;;;;;;12.76;50.90;100179.13;107767;1270;108994;-74
2022/05/13 01:28:21;;;;;;;8.90;3.40;;;;;;;12.77;51.06;100180.10;107151;1269;137798;-74
2022/05/13 01:30:56;;;;;;;6.80;3.30;;;;;;;12.78;51.11;100181.46;107264;1270;95098;-74
2022/05/13 01:33:29;;;;;;;6.60;4.00;;;;;;;12.78;51.15;100185.64;106392;1271;137757;-74
2022/05/13 01:36:04;;;;;;;8.80;4.00;;;;;;;12.77;51.11;100186.20;106449;1269;108899;-74
2022/05/13 01:38:39;;;;;;;5.80;3.20;;;;;;;12.75;51.16;100181.94;106429;1271;108446;-74
2022/05/13 01:41:13;;;;;;;8.20;3.70;;;;;;;12.73;51.25;100181.14;106285;1271;137662;-75
2022/05/13 01:43:47;;;;;;;8.90;3.60;;;;;;;12.71;51.22;100179.78;107875;1269;94427;-75
2022/05/13 01:46:21;;;;;;;9.30;3.80;;;;;;;12.69;51.26;100178.31;107811;1271;137605;-76
2022/05/13 01:48:53;;;;;;;7.20;3.50;;;;;;;12.70;51.24;100179.31;107921;1269;108494;-75
2022/05/13 01:51:26;;;;;;;6.10;3.50;;;;;;;12.68;51.20;100179.73;106534;1271;138200;-76
2022/05/13 01:53:59;;;;;;;8.00;3.60;;;;;;;12.70;51.27;100179.15;106401;1271;96588;-73
2022/05/13 01:56:32;;;;;;;6.10;3.20;;;;;;;12.73;50.95;100178.53;106931;1269;96597;-74
2022/05/13 01:59:04;;;;;;;7.10;3.80;;;;;;;12.72;51.18;100177.31;106255;1270;137779;-74
2022/05/13 02:01:36;;;;;;;7.10;3.70;;;;;;;12.70;51.15;100178.96;107791;1269;107943;-75
2022/05/13 02:04:08;;;;;;;11.00;3.90;;;;;;;12.70;51.28;100173.58;106241;1270;138559;-74
2022/05/13 02:06:40;;;;;;;7.20;3.60;;;;;;;12.69;51.30;100174.10;106393;1271;96501;-74
2022/05/13 02:09:12;;;;;;;6.40;3.60;;;;;;;12.71;51.28;100170.92;107794;1269;137496;-75
2022/05/13 02:11:45;;;;;;;6.40;3.70;;;;;;;12.69;51.49;100168.21;107936;1270;111135;-74
2022/05/13 02:14:19;;;;;;;11.10;3.80;;;;;;;12.69;51.11;100167.15;106483;1269;107776;-73
2022/05/13 02:16:51;;;;;;;7.10;3.80;;;;;;;12.66;51.22;100166.23;106331;1271;139000;-74
2022/05/13 02:19:24;;;;;;;10.20;3.40;;;;;;;12.62;51.31;100167.98;107892;1269;94682;-74
2022/05/13 02:21:55;;;;;;;8.30;3.50;;;;;;;12.60;51.40;100170.70;106702;1270;137690;-74
2022/05/13 02:24:28;;;;;;;6.70;3.30;;;;;;;12.59;51.51;100171.62;106442;1268;109896;-73
2022/05/13 02:27:01;;;;;;;10.40;3.90;;;;;;;12.57;51.50;100174.83;107806;1269;137882;-72
2022/05/13 02:29:32;;;;;;;6.80;3.90;;;;;;;12.55;51.70;100176.98;107968;1267;109413;-74
2022/05/13 02:32:06;;;;;;;8.40;4.00;;;;;;;12.54;51.70;100173.54;106951;1268;96489;-74
2022/05/13 02:34:38;;;;;;;8.30;3.80;;;;;;;12.52;51.76;100165.42;106494;1268;137477;-73
2022/05/13 02:37:10;;;;;;;9.90;3.70;;;;;;;12.52;51.80;100166.45;106474;1268;110595;-74
2022/05/13 02:39:42;;;;;;;10.20;3.90;;;;;;;12.53;51.61;100160.52;106344;1268;137406;-74
2022/05/13 02:42:14;;;;;;;10.50;3.60;;;;;;;12.52;51.56;100159.86;107521;1268;106350;-74
2022/05/13 02:44:46;;;;;;;7.70;4.00;;;;;;;12.46;51.73;100162.19;106389;1270;96507;-74
2022/05/13 02:47:19;;;;;;;10.10;3.70;;;;;;;12.41;51.99;100155.80;106316;1268;137469;-74
2022/05/13 02:50:17;;;;;;;6.50;3.50;;;;;;;12.32;52.30;100154.57;106415;1268;111112;-75
2022/05/13 02:52:43;;;;;;;8.50;4.00;;;;;;;12.20;52.29;100150.56;106314;1268;137650;-74
2022/05/13 02:55:16;;;;;;;6.30;4.10;;;;;;;12.11;52.60;100151.61;106478;1268;108128;-74
2022/05/13 02:57:49;;;;;;;7.60;4.10;;;;;;;12.01;52.77;100149.74;106405;1268;137590;-75
2022/05/13 03:00:22;;;;;;;8.70;4.00;;;;;;;11.91;52.96;100148.57;107968;1268;94663;-74
2022/05/13 03:02:54;;;;;;;10.30;4.00;;;;;;;11.84;53.21;100144.65;108003;1267;111115;-75
2022/05/13 03:05:26;;;;;;;6.50;3.80;;;;;;;11.75;53.38;100147.20;107965;1268;108624;-75
2022/05/13 03:08:01;;;;;;;9.30;4.00;;;;;;;11.69;53.50;100152.02;107042;1268;108242;-75
2022/05/13 03:10:35;;;;;;;9.20;3.90;;;;;;;11.63;53.78;100151.52;107840;1268;138532;-76
2022/05/13 03:13:10;;;;;;;7.00;4.10;;;;;;;11.59;53.80;100147.68;107006;1268;96500;-75
2022/05/13 03:15:42;;;;;;;5.60;3.70;;;;;;;11.55;53.97;100149.22;106413;1268;137671;-74
2022/05/13 03:18:14;;;;;;;8.20;4.30;;;;;;;11.53;54.00;100150.51;107973;1268;109173;-75
2022/05/13 03:20:46;;;;;;;7.70;3.80;;;;;;;11.57;53.99;100150.55;107943;1267;108965;-75
2022/05/13 03:23:18;;;;;;;6.70;3.90;;;;;;;11.62;54.05;100151.55;107850;1266;137284;-74
2022/05/13 03:25:50;;;;;;;6.30;3.90;;;;;;;11.66;53.92;100153.32;107181;1267;94639;-75
2022/05/13 03:28:22;;;;;;;9.50;4.20;;;;;;;11.70;53.84;100155.95;106340;1268;137441;-75
2022/05/13 03:30:55;;;;;;;9.40;4.60;;;;;;;11.75;53.72;100151.40;106471;1268;106251;-73
2022/05/13 03:33:27;;;;;;;12.80;5.20;;;;;;;11.81;53.61;100150.15;106336;1268;137748;-74
2022/05/13 03:36:00;;;;;;;8.80;3.70;;;;;;;11.85;53.56;100149.84;106433;1270;96471;-74
2022/05/13 03:38:32;;;;;;;8.80;4.00;;;;;;;11.90;53.45;100146.15;106452;1268;96593;-74
2022/05/13 03:41:04;;;;;;;14.40;3.80;;;;;;;11.96;53.32;100148.87;106374;1268;137358;-74
2022/05/13 03:43:36;;;;;;;10.50;4.10;;;;;;;11.99;53.24;100153.26;106443;1268;108664;-76
2022/05/13 03:46:08;;;;;;;7.30;3.50;;;;;;;12.03;53.18;100148.95;106295;1268;138085;-74
2022/05/13 03:48:40;;;;;;;13.90;3.60;;;;;;;12.04;53.16;100148.23;107950;1268;94543;-74
2022/05/13 03:51:13;;;;;;;7.30;3.50;;;;;;;12.04;53.11;100148.06;107862;1268;138493;-75
2022/05/13 03:53:47;;;;;;;10.10;3.70;;;;;;;12.03;53.11;100149.29;107923;1268;111175;-74
2022/05/13 03:56:19;;;;;;;7.90;3.60;;;;;;;12.08;53.06;100149.27;106496;1269;107375;-75
2022/05/13 03:58:51;;;;;;;8.90;4.20;;;;;;;12.16;53.02;100151.95;106395;1268;139634;-75
2022/05/13 04:01:23;;;;;;;10.00;4.10;;;;;;;12.23;52.91;100150.76;106441;1268;96481;-74
2022/05/13 04:03:55;;;;;;;11.40;5.90;;;;;;;12.30;52.79;100151.89;106328;1268;137698;-74
2022/05/13 04:09:23;;;;;;;7.30;3.50;;;;;;;12.42;52.41;100156.10;106193;1273;139157;-75
2022/05/13 04:17:31;;;;;;;7.80;3.30;;;;;;;12.55;52.38;100143.34;106203;1273;96578;-75
2022/05/13 04:20:03;;;;;;;9.00;3.60;;;;;;;12.58;52.11;100143.75;106312;1273;110727;-74
2022/05/13 04:22:35;;;;;;;11.00;4.50;;;;;;;12.63;52.03;100147.02;106147;1273;137668;-74
2022/05/13 04:25:09;;;;;;;7.40;3.80;;;;;;;12.69;51.95;100151.95;107411;1273;107787;-76
2022/05/13 04:27:41;;;;;;;12.70;4.40;;;;;;;12.77;51.88;100149.92;106078;1273;235677;-75
2022/05/13 04:30:15;;;;;;;6.80;3.50;;;;;;;12.86;51.75;100151.41;106190;1273;96624;-74
2022/05/13 04:32:47;;;;;;;8.80;4.00;;;;;;;12.97;51.62;100152.19;107689;1273;109676;-74
2022/05/13 04:35:19;;;;;;;7.50;3.80;;;;;;;13.10;51.46;100156.33;107531;1273;138467;-75
2022/05/13 04:37:51;;;;;;;8.10;3.80;;;;;;;13.20;51.20;100150.14;106203;1273;108714;-75
2022/05/13 04:40:23;;;;;;;7.00;4.10;;;;;;;13.35;51.05;100144.41;106072;1273;137710;-75
2022/05/13 04:42:56;;;;;;;8.70;4.00;;;;;;;13.50;50.80;100142.52;107688;1272;94661;-75
2022/05/13 04:45:31;;;;;;;9.20;3.70;;;;;;;13.64;50.54;100140.11;107542;1273;138258;-75
2022/05/13 04:48:18;;;;;;;8.10;3.60;;;;;;;13.78;50.29;100136.66;107952;1268;107527;-75
2022/05/13 04:50:54;;;;;;;9.90;3.60;;;;;;;13.91;50.18;100133.75;107930;1268;108847;-75
2022/05/13 04:53:29;;;;;;;10.70;3.80;;;;;;;14.04;50.00;100129.48;107349;1268;96451;-76
2022/05/13 04:56:03;;;;;;;8.00;3.80;;;;;;;14.21;49.81;100131.45;106455;1268;96676;-75
2022/05/13 04:58:36;;;;;;;8.90;3.70;;;;;;;14.38;49.50;100135.14;106415;1268;137851;-76
2022/05/13 05:01:09;;;;;;;7.40;3.60;;;;;;;14.53;49.19;100134.60;106496;1268;107290;-75
2022/05/13 05:03:45;;;;;;;14.40;3.70;;;;;;;14.74;49.00;100138.61;106334;1268;139536;-75
2022/05/13 05:06:19;;;;;;;7.10;3.30;;;;;;;14.95;48.48;100137.35;106466;1268;96472;-74
2022/05/13 05:08:52;;;;;;;9.40;3.50;;;;;;;15.18;48.19;100140.55;106461;1268;96619;-75
2022/05/13 05:11:25;;;;;;;8.30;3.80;;;;;;;15.47;47.97;100137.58;107980;1268;110843;-76
2022/05/13 05:13:57;;;;;;;12.10;3.70;;;;;;;16.00;47.64;100133.96;107944;1267;108182;-74
2022/05/13 05:16:29;;;;;;;17.80;3.70;;;;;;;17.31;47.14;100132.71;107679;1268;138409;-74
2022/05/13 05:19:01;;;;;;;8.10;3.20;;;;;;;19.56;45.28;100126.19;106470;1268;96455;-75
2022/05/13 05:21:33;;;;;;;8.20;3.80;;;;;;;21.87;41.99;100116.52;106398;1268;138004;-75
2022/05/13 05:24:06;;;;;;;9.00;3.30;;;;;;;23.94;39.29;100110.05;106653;1267;113251;-75
2022/05/13 05:26:38;;;;;;;12.00;3.20;;;;;;;25.91;36.58;100095.65;107089;1268;108908;-75
2022/05/13 05:29:10;;;;;;;11.30;3.30;;;;;;;27.59;34.07;100089.02;106321;1268;138789;-75
2022/05/13 05:31:42;;;;;;;10.00;3.10;;;;;;;29.05;31.71;100089.20;106396;1267;96498;-73
2022/05/13 05:34:16;;;;;;;11.20;3.40;;;;;;;30.28;30.06;100081.14;107787;1266;138376;-73
2022/05/13 05:36:48;;;;;;;7.50;2.60;;;;;;;31.27;28.40;100086.03;107916;1269;111233;-74
2022/05/13 05:39:21;;;;;;;10.90;2.80;;;;;;;32.43;27.17;100082.45;107809;1268;137968;-76
2022/05/13 05:41:55;;;;;;;;;;;;;;;33.30;25.64;100084.44;107871;1267;108752;-73
2022/05/13 05:44:27;;;;;;;12.40;2.90;;;;;;;34.17;24.47;100079.24;107873;1268;94900;-72
2022/05/13 05:47:00;;;;;;;11.10;3.10;;;;;;;34.90;23.24;100077.12;107789;1267;137875;-73
2022/05/13 05:49:32;;;;;;;9.20;2.30;;;;;;;35.52;22.07;100080.08;107928;1268;111974;-72
2022/05/13 05:52:05;;;;;;;7.90;2.90;;;;;;;35.99;20.97;100087.38;107790;1268;137550;-72
2022/05/13 05:57:31;;;;;;;10.80;2.30;;;;;;;36.53;20.22;100083.83;107784;1268;137966;-72
2022/05/13 06:00:05;;;;;;;8.30;2.70;;;;;;;37.26;20.07;100090.13;107910;1267;94654;-73
2022/05/13 06:02:38;;;;;;;10.60;2.40;;;;;;;38.09;19.21;100083.50;107913;1266;111076;-72
2022/05/13 06:05:11;;;;;;;13.50;2.80;;;;;;;38.69;18.68;100082.45;107389;1268;138081;-73
2022/05/13 06:07:45;;;;;;;15.00;3.60;;;;;;;39.30;17.98;100086.52;106760;1268;109414;-72
2022/05/13 06:10:18;;;;;;;12.60;2.70;;;;;;;39.86;17.39;100089.01;106322;1268;137733;-71
2022/05/13 06:12:50;;;;;;;10.30;2.70;;;;;;;40.01;16.76;100086.78;106745;1268;96395;-72
2022/05/13 06:15:23;;;;;;;7.40;2.00;;;;;;;40.13;16.62;100085.43;107805;1268;138205;-72
2022/05/13 06:17:57;;;;;;;5.70;1.80;;;;;;;40.55;16.19;100083.03;107910;1268;107876;-73
2022/05/13 06:20:31;;;;;;;5.70;1.90;;;;;;;40.85;15.54;100085.09;107913;1270;107745;-73
2022/05/13 06:23:03;;;;;;;7.10;1.60;;;;;;;41.02;15.00;100086.36;107467;1269;138441;-73
2022/05/13 06:25:36;;;;;;;7.90;1.30;;;;;;;40.83;14.58;100084.05;107885;1268;94871;-73
2022/05/13 06:28:09;;;;;;;2.90;1.10;;;;;;;40.75;14.28;100080.48;107839;1268;138462;-73
2022/05/13 06:30:41;;;;;;;2.60;1.40;;;;;;;40.81;14.01;100083.31;107866;1268;107591;-74
2022/05/13 06:33:14;;;;;;;7.40;1.10;;;;;;;40.75;13.88;100089.08;107800;1267;137586;-73
2022/05/13 06:35:46;;;;;;;5.10;1.70;;;;;;;40.32;13.24;100083.46;107891;1268;95025;-73
2022/05/13 06:38:22;;;;;;;5.80;1.20;;;;;;;40.07;13.92;100084.50;107911;1268;94788;-73
2022/05/13 06:40:55;;;;;;;5.20;1.30;;;;;;;40.10;13.72;100086.53;107689;1269;137394;-73
2022/05/13 06:43:27;;;;;;;2.80;1.20;;;;;;;40.24;13.71;100082.16;107915;1268;107571;-73
2022/05/13 06:45:59;;;;;;;4.60;1.30;;;;;;;40.62;13.47;100082.96;107794;1268;137508;-73
2022/05/13 06:48:31;;;;;;;4.10;1.40;;;;;;;40.74;13.18;100080.63;107928;1267;94881;-73
2022/05/13 06:51:04;;;;;;;6.30;1.10;;;;;;;40.36;12.76;100080.13;107800;1270;137919;-72
2022/05/13 06:53:36;;;;;;;3.60;1.30;;;;;;;40.01;12.57;100078.11;106497;1268;111506;-73
2022/05/13 06:56:08;;;;;;;5.10;1.10;;;;;;;39.93;13.01;100078.29;107439;1268;108546;-72
2022/05/13 06:58:40;;;;;;;2.70;1.10;;;;;;;39.98;13.21;100071.88;106936;1268;138066;-72
2022/05/13 07:01:12;;;;;;;6.30;1.20;;;;;;;40.06;12.90;100073.30;106394;1268;96562;-72
2022/05/13 07:03:44;;;;;;;3.40;1.30;;;;;;;40.03;12.64;100074.55;107627;1268;138899;-72
2022/05/13 07:06:17;;;;;;;3.80;0.80;;;;;;;40.05;12.82;100071.64;107133;1268;111351;-73
2022/05/13 07:08:50;;;;;;;4.70;1.00;;;;;;;40.07;12.28;100075.27;107844;1270;107534;-74
2022/05/13 07:11:22;;;;;;;5.80;1.00;;;;;;;40.05;12.16;100072.56;106585;1268;137861;-73
2022/05/13 07:13:55;;;;;;;2.90;0.90;;;;;;;39.76;12.44;100068.56;107901;1268;94742;-73
2022/05/13 07:16:27;;;;;;;8.20;1.10;;;;;;;39.50;12.58;100068.17;107364;1268;137857;-73
2022/05/13 07:19:04;;;;;;;5.20;1.50;;;;;;;39.37;12.68;100062.22;106840;1268;111278;-75
2022/05/13 07:21:39;;;;;;;3.10;1.00;;;;;;;39.38;12.59;100055.92;107636;1267;137786;-73
2022/05/13 07:24:11;;;;;;;5.80;1.00;;;;;;;39.44;12.56;100054.66;107893;1267;108152;-73
2022/05/13 07:26:43;;;;;;;6.90;1.10;;;;;;;39.59;12.64;100054.77;107914;1268;94566;-74
2022/05/13 07:29:15;;;;;;;2.80;0.90;;;;;;;39.73;12.16;100056.55;107811;1268;137228;-73
2022/05/13 07:31:48;;;;;;;7.50;1.00;;;;;;;39.59;12.37;100058.52;107880;1269;110119;-73
2022/05/13 07:34:20;;;;;;;5.50;1.00;;;;;;;39.73;12.26;100058.58;107852;1267;137510;-73
2022/05/13 07:36:54;;;;;;;4.00;0.90;;;;;;;39.68;12.14;100053.05;106483;1268;108755;-73
2022/05/13 07:42:16;;;;;;;3.10;0.80;;;;;;;38.81;12.00;100049.70;107945;1266;94697;-73
2022/05/13 07:44:48;;;;;;;4.80;0.90;;;;;;;38.48;12.09;100048.21;107907;1268;109205;-73
2022/05/13 07:47:21;;;;;;;5.10;1.50;;;;;;;38.32;12.49;100044.02;107816;1268;137961;-73
2022/05/13 07:49:53;;;;;;;4.20;0.90;;;;;;;38.64;12.63;100046.11;107929;1268;108876;-74
2022/05/13 07:52:26;;;;;;;5.10;0.90;;;;;;;38.75;12.17;100046.03;106692;1268;137934;-71
2022/05/13 07:54:58;;;;;;;3.00;1.00;;;;;;;38.78;11.93;100047.36;107259;1269;96487;-73
2022/05/13 07:57:30;;;;;;;2.10;0.80;;;;;;;38.78;11.88;100050.73;107466;1268;137606;-73
2022/05/13 08:00:29;;;;;;;7.50;1.20;;;;;;;38.81;11.85;100049.16;107669;1268;107803;-73
2022/05/13 08:03:05;;;;;;;5.80;1.30;;;;;;;38.71;11.76;100053.35;107336;1267;138456;-72
2022/05/13 08:05:42;;;;;;;3.10;0.60;;;;;;;38.21;12.00;100047.16;107926;1267;94700;-74
2022/05/13 08:08:17;;;;;;;3.20;1.00;;;;;;;38.01;12.45;100056.63;107930;1268;94565;-73
2022/05/13 08:10:51;;;;;;;5.90;1.00;;;;;;;38.24;12.51;100051.27;106614;1270;137728;-72
2022/05/13 08:13:25;;;;;;;3.60;1.10;;;;;;;38.37;12.29;100055.11;107929;1268;109601;-73
2022/05/13 08:15:57;;;;;;;4.80;1.10;;;;;;;38.32;12.21;100050.83;107325;1268;137739;-72
2022/05/13 08:18:29;;;;;;;3.30;0.80;;;;;;;37.88;12.36;100045.98;106446;1270;96477;-73
2022/05/13 08:21:02;;;;;;;5.70;1.00;;;;;;;37.85;12.87;100043.94;106384;1268;137545;-73
2022/05/13 08:23:35;;;;;;;4.90;1.10;;;;;;;37.97;12.82;100045.30;107606;1268;110436;-74
2022/05/13 08:26:08;;;;;;;4.50;1.00;;;;;;;37.78;12.18;100039.84;107871;1267;108717;-74
2022/05/13 08:28:41;;;;;;;3.30;1.20;;;;;;;37.52;12.19;100036.13;107450;1269;137927;-73
2022/05/13 08:31:14;;;;;;;5.20;1.00;;;;;;;37.41;12.72;100036.87;107876;1268;94844;-74
2022/05/13 08:33:48;;;;;;;2.20;1.00;;;;;;;37.06;12.46;100024.34;107829;1269;137949;-72
2022/05/13 08:36:20;;;;;;;4.10;0.80;;;;;;;36.37;12.77;100035.36;106459;1268;110038;-73
2022/05/13 08:38:52;;;;;;;4.30;1.90;;;;;;;36.21;13.18;100032.14;106413;1270;107855;-73
2022/05/13 08:41:49;;;;;;;2.30;0.80;;;;;;;36.35;13.29;100035.84;106419;1268;109070;-74
2022/05/13 08:44:22;;;;;;;4.90;1.20;;;;;;;36.42;13.39;100031.93;106444;1268;96563;-73
2022/05/13 08:47:01;;;;;;;4.70;0.70;;;;;;;36.56;13.01;100029.55;106281;1268;137913;-73
2022/05/13 08:49:54;;;;;;;4.70;0.80;;;;;;;36.73;13.09;100032.41;107937;1268;109764;-73
2022/05/13 08:55:35;;;;;;;2.50;1.10;;;;;;;36.75;13.08;100021.54;106412;1268;108968;-73
2022/05/13 08:58:12;;;;;;;3.30;1.20;;;;;;;36.64;13.00;100013.71;106323;1270;137732;-72
2022/05/13 09:00:49;;;;;;;4.30;1.00;;;;;;;36.26;13.09;100014.98;107588;1268;95170;-73
2022/05/13 09:03:39;;;;;;;4.20;1.00;;;;;;;36.00;13.15;100012.04;107775;1268;137684;-74
2022/05/13 09:06:18;;;;;;;5.30;1.00;;;;;;;35.97;13.27;100013.87;106436;1268;108739;-74
2022/05/13 09:08:51;;;;;;;2.10;1.00;;;;;;;35.50;13.13;100023.05;107255;1270;109652;-73
2022/05/13 09:11:29;;;;;;;6.40;1.10;;;;;;;34.28;13.37;100020.27;106419;1268;137300;-73
2022/05/13 09:14:09;;;;;;;2.70;0.90;;;;;;;33.73;14.22;100016.16;107964;1268;94674;-74
2022/05/13 09:16:57;;;;;;;7.20;1.30;;;;;;;33.33;14.51;100011.46;106959;1268;137583;-74
2022/05/13 09:19:36;;;;;;;4.00;1.30;;;;;;;32.56;14.91;100012.89;107876;1269;107797;-73
2022/05/13 09:22:11;;;;;;;5.20;1.00;;;;;;;31.86;15.13;100008.99;106379;1268;137543;-74
2022/05/13 09:24:45;;;;;;;4.30;1.00;;;;;;;31.56;15.55;100006.17;106473;1268;96529;-73
2022/05/13 09:27:59;;;;;;;3.00;0.80;;;;;;;31.82;15.66;100004.78;106341;1268;137486;-72
2022/05/13 09:30:37;;;;;;;4.70;1.20;;;;;;;32.27;15.75;99996.97;106370;1268;108723;-73
2022/05/13 09:33:24;;;;;;;3.80;0.90;;;;;;;32.78;15.40;99988.95;107280;1268;137472;-76
2022/05/13 09:35:56;;;;;;;;;;;;;;;33.13;15.17;99984.01;107885;1268;108205;-74
2022/05/13 09:38:30;;;;;;;2.90;0.80;;;;;;;33.25;15.40;99976.83;107926;1268;95217;-64
2022/05/13 09:41:05;;;;;;;3.50;0.90;;;;;;;33.16;15.53;99970.42;107834;1266;138314;-69
2022/05/13 09:43:40;;;;;;;5.00;1.00;;;;;;;33.08;15.85;99972.60;107951;1268;111402;-66
2022/05/13 09:46:22;;;;;;;6.30;1.20;;;;;;;32.89;15.42;99976.02;107837;1268;137256;-65
2022/05/13 09:48:59;;;;;;;2.80;0.90;;;;;;;32.85;15.50;99970.80;107537;1268;109102;-65
2022/05/13 09:51:36;;;;;;;2.10;0.90;;;;;;;32.98;15.33;99960.34;106334;1268;137656;-65
2022/05/13 09:54:13;;;;;;;4.10;1.20;;;;;;;33.07;15.52;99955.60;107867;1270;95285;-65
2022/05/13 09:56:48;;;;;;;5.00;1.20;;;;;;;33.48;15.53;99947.02;107120;1268;111233;-65
2022/05/13 09:59:23;;;;;;;1.30;0.90;;;;;;;33.83;15.37;99942.15;106328;1268;137214;-65
2022/05/13 10:02:13;;;;;;;3.40;0.80;;;;;;;34.07;15.00;99938.88;107814;1268;108854;-66
2022/05/13 10:04:52;;;;;;;2.20;1.10;;;;;;;33.80;14.42;99939.36;106505;1268;137478;-66
2022/05/13 10:07:25;;;;;;;3.90;1.00;;;;;;;33.34;14.22;99935.57;107955;1268;94692;-66
2022/05/13 10:15:45;;;;;;;5.80;1.10;;;;;;;30.89;15.38;99937.77;106303;1268;137579;-65
2022/05/13 10:18:25;;;;;;;6.10;1.00;;;;;;;30.60;15.72;99935.33;107791;1268;94843;-75
2022/05/13 10:21:02;;;;;;;3.70;1.10;;;;;;;30.15;15.97;99935.89;107918;1268;94828;-74
2022/05/13 10:23:38;;;;;;;2.50;0.90;;;;;;;30.19;16.24;99932.65;107872;1270;111058;-75
2022/05/13 10:26:15;;;;;;;4.30;0.90;;;;;;;30.47;16.16;99932.02;107843;1269;108896;-73
2022/05/13 10:29:04;;;;;;;6.20;1.20;;;;;;;30.46;16.12;99932.16;107781;1268;137253;-73
2022/05/13 10:31:42;;;;;;;3.00;1.00;;;;;;;30.31;16.09;99933.88;107889;1269;94799;-73
2022/05/13 10:34:25;;;;;;;3.40;1.10;;;;;;;30.09;16.18;99931.00;107799;1268;137072;-73
2022/05/13 10:37:04;;;;;;;5.10;1.30;;;;;;;29.50;16.22;99924.20;107906;1268;112048;-73
2022/05/13 10:39:44;;;;;;;4.50;1.40;;;;;;;29.07;16.89;99924.52;107853;1268;138164;-73
2022/05/13 10:42:21;;;;;;;2.60;1.40;;;;;;;28.95;16.98;99923.13;107796;1268;108016;-73
2022/05/13 10:44:59;;;;;;;5.70;1.00;;;;;;;28.55;17.07;99910.60;107855;1268;94937;-72
2022/05/13 10:47:40;;;;;;;3.30;1.10;;;;;;;28.32;17.36;99927.49;107922;1268;94933;-74
2022/05/13 10:50:18;;;;;;;6.70;1.10;;;;;;;27.98;17.60;99927.25;107905;1268;111100;-75
2022/05/13 10:52:59;;;;;;;5.00;1.20;;;;;;;27.44;17.69;99922.59;107836;1268;139570;-75
2022/05/13 10:55:38;;;;;;;3.60;1.10;;;;;;;26.95;18.06;99920.73;107884;1268;108850;-74
2022/05/13 10:58:23;;;;;;;4.90;1.10;;;;;;;26.87;18.45;99912.11;107781;1268;137774;-74
2022/05/13 11:01:05;;;;;;;6.40;1.50;;;;;;;27.03;18.78;99910.09;107875;1269;94798;-75
2022/05/13 11:03:47;;;;;;;2.80;1.20;;;;;;;27.43;19.00;99912.58;107418;1270;138290;-74
2022/05/13 11:06:32;;;;;;;3.10;1.30;;;;;;;27.53;18.59;99914.50;107881;1268;109265;-75
2022/05/13 11:09:11;;;;;;;4.80;1.10;;;;;;;27.22;18.99;99913.59;107704;1270;137708;-74
2022/05/13 11:11:45;;;;;;;8.80;1.50;;;;;;;27.24;18.84;99908.59;107927;1268;94532;-73
2022/05/13 11:14:38;;;;;;;5.00;1.40;;;;;;;27.14;18.95;99906.48;107949;1268;94732;-74
2022/05/13 11:17:20;;;;;;;9.90;1.50;;;;;;;27.15;18.96;99896.85;107837;1268;137095;-75
2022/05/13 11:20:04;;;;;;;9.10;1.60;;;;;;;27.18;18.89;99892.47;107048;1268;109906;-74
2022/05/13 11:22:40;;;;;;;3.80;1.20;;;;;;;27.10;18.90;99887.99;107522;1269;138113;-74
2022/05/13 11:28:40;;;;;;;4.70;1.40;;;;;;;26.98;19.19;99882.38;106549;1268;137218;-74
2022/05/13 11:31:25;;;;;;;6.80;1.40;;;;;;;26.92;19.07;99888.24;106339;1268;110186;-75
2022/05/13 11:34:07;;;;;;;7.30;1.40;;;;;;;26.81;19.29;99887.91;106641;1268;137301;-74
2022/05/13 11:36:53;;;;;;;5.20;1.10;;;;;;;26.38;19.59;99884.27;107628;1268;109142;-75
2022/05/13 11:39:50;;;;;;;5.50;1.40;;;;;;;25.80;20.00;99890.73;106692;1271;138207;-75
2022/05/13 11:42:33;;;;;;;7.70;1.70;;;;;;;25.48;20.57;99889.54;106868;1268;96710;-75
2022/05/13 11:45:25;;;;;;;4.40;1.60;;;;;;;25.45;21.03;99883.66;106518;1270;137254;-77
2022/05/13 11:48:11;;;;;;;6.60;1.30;;;;;;;25.47;20.99;99872.91;107909;1268;108810;-77
2022/05/13 11:50:44;;;;;;;3.90;1.70;;;;;;;25.53;21.26;99875.91;107893;1268;108546;-77
2022/05/13 11:53:46;;;;;;;6.10;1.30;;;;;;;25.53;21.29;99873.21;107352;1269;137226;-75
2022/05/13 11:56:34;;;;;;;4.30;1.30;;;;;;;25.42;21.38;99865.45;107908;1268;94521;-75
2022/05/13 11:59:11;;;;;;;6.80;1.30;;;;;;;25.50;21.52;99865.48;107503;1268;137640;-76
2022/05/13 12:01:59;;;;;;;6.30;1.60;;;;;;;25.53;21.57;99862.00;107859;1269;108730;-76
2022/05/13 12:04:37;;;;;;;3.70;1.40;;;;;;;25.54;21.69;99859.98;107782;1268;137276;-76
2022/05/13 12:07:28;;;;;;;4.00;1.60;;;;;;;25.41;21.80;99861.02;107897;1268;94712;-75
2022/05/13 12:10:04;;;;;;;4.00;1.60;;;;;;;25.22;21.95;99851.70;107794;1270;137519;-75
2022/05/13 12:12:57;;;;;;;3.00;1.40;;;;;;;25.12;22.10;99853.81;107913;1268;111088;-75
2022/05/13 12:15:43;;;;;;;5.00;1.20;;;;;;;24.93;22.19;99850.02;107813;1268;138038;-75
2022/05/13 12:18:25;;;;;;;5.60;1.30;;;;;;;24.70;22.35;99846.02;107460;1268;108460;-76